Terminal Aerodrome Forecast
Issued by NWS Twin Cities, MN

Home | Current Version | Previous Version | Text Only | Print | Product List | Glossary On
Versions: 1 2 3 4 5 6 7 8 9 10 11 12 13 14 15 16 17 18 19
000
FTUS43 KMPX 170531
TAFEAU
TAF
KEAU 170531Z 1706/1806 14006KT 6SM -SHRA BR SCT009 BKN020
     FM170800 13007KT 5SM BR VCSH OVC009
     FM171400 19008KT 6SM BR VCSH OVC007
     FM171600 23010G17KT 4SM -SHRA BR OVC007
     FM172200 31014G21KT P6SM OVC010
     FM180300 32008KT P6SM SCT015 BKN040=

USA.gov is the U.S. government's official web portal to all federal, state and local government web resources and services.